createdAt,value
2018-06-11T00:00:57.398Z,1014.24
2018-06-11T00:02:06.360Z,1014.29
2018-06-11T00:03:15.223Z,1014.28
2018-06-11T00:04:24.085Z,1014.26
2018-06-11T00:05:33.222Z,1014.2
2018-06-11T00:06:42.358Z,1014.18
2018-06-11T00:07:51.369Z,1014.22
2018-06-11T00:09:00.507Z,1014.22
2018-06-11T00:10:09.366Z,1014.28
2018-06-11T00:11:18.229Z,1014.29
2018-06-11T00:12:27.370Z,1014.27
2018-06-11T00:13:36.659Z,1014.31
2018-06-11T00:14:45.517Z,1014.24
2018-06-11T00:15:54.375Z,1014.28
2018-06-11T00:17:03.238Z,1014.2
2018-06-11T00:18:12.099Z,1014.24
2018-06-11T00:19:21.211Z,1014.24
2018-06-11T00:20:30.071Z,1014.24
2018-06-11T00:21:39.212Z,1014.25
2018-06-11T00:22:48.075Z,1014.22
2018-06-11T00:23:56.941Z,1014.2
2018-06-11T00:25:06.178Z,1014.23
2018-06-11T00:26:15.315Z,1014.19
2018-06-11T00:27:24.178Z,1014.2
2018-06-11T00:28:33.039Z,1014.2
2018-06-11T00:29:42.182Z,1014.18
2018-06-11T00:30:51.326Z,1014.19
2018-06-11T00:32:00.187Z,1014.19
2018-06-11T00:33:09.052Z,1014.2
2018-06-11T00:34:17.914Z,1014.16
2018-06-11T00:35:26.773Z,1014.15
2018-06-11T00:36:35.835Z,1014.19
2018-06-11T00:37:44.973Z,1014.12
2018-06-11T00:38:53.834Z,1014.19
2018-06-11T00:40:02.972Z,1014.17
2018-06-11T00:41:12.112Z,1014.08
2018-06-11T00:42:21.249Z,1014.16
2018-06-11T00:43:30.112Z,1014.16
2018-06-11T00:44:38.974Z,1014.11
2018-06-11T00:45:47.836Z,1014.17
2018-06-11T00:46:56.697Z,1014.17
2018-06-11T00:48:05.664Z,1014.14
2018-06-11T00:49:15.080Z,1014.18
2018-06-11T00:50:24.221Z,1014.09
2018-06-11T00:51:33.082Z,1014.09
2018-06-11T00:52:41.946Z,1014.02
2018-06-11T00:53:51.135Z,1014.04
2018-06-11T00:55:00.549Z,1013.94
2018-06-11T00:56:09.410Z,1013.91
2018-06-11T00:57:18.272Z,1013.88
2018-06-11T00:58:27.409Z,1013.86
2018-06-11T00:59:36.273Z,1013.82
2018-06-11T01:00:45.135Z,1013.81
2018-06-11T01:01:53.993Z,1013.81
2018-06-11T01:03:03.134Z,1013.8
2018-06-11T01:04:11.996Z,1013.78
2018-06-11T01:05:20.907Z,1013.8
2018-06-11T01:06:29.769Z,1013.8
2018-06-11T01:07:38.734Z,1013.78
2018-06-11T01:08:48.151Z,1013.81
2018-06-11T01:09:57.013Z,1013.84
2018-06-11T01:11:06.501Z,1013.82
2018-06-11T01:12:15.640Z,1013.91
2018-06-11T01:13:24.780Z,1013.84
2018-06-11T01:14:33.919Z,1013.95
2018-06-11T01:15:42.780Z,1014.02
2018-06-11T01:16:51.647Z,1014.05
2018-06-11T01:18:00.505Z,1014.06
2018-06-11T01:19:09.368Z,1014.09
2018-06-11T01:20:18.226Z,1014.1
2018-06-11T01:21:27.657Z,1014.1
2018-06-11T01:22:36.517Z,1014.16
2018-06-11T01:23:45.654Z,1014.2
2018-06-11T01:24:54.522Z,1014.2
2018-06-11T01:26:03.654Z,1014.16
2018-06-11T01:27:12.526Z,1014.2
2018-06-11T01:28:21.434Z,1014.17
2018-06-11T01:29:30.295Z,1014.18
2018-06-11T01:30:39.159Z,1014.16
2018-06-11T01:31:48.298Z,1014.15
2018-06-11T01:32:57.157Z,1014.14
2018-06-11T01:34:06.018Z,1014.19
2018-06-11T01:35:14.878Z,1014.16
2018-06-11T01:36:23.738Z,1014.25
2018-06-11T01:37:32.597Z,1014.23
2018-06-11T01:38:41.455Z,1014.21
2018-06-11T01:39:50.321Z,1014.26
2018-06-11T01:40:59.195Z,1014.24
2018-06-11T01:42:08.038Z,1014.25
2018-06-11T01:43:16.899Z,1014.29
2018-06-11T01:44:26.033Z,1014.26
2018-06-11T01:45:34.993Z,1014.26
2018-06-11T01:46:43.853Z,1014.29
2018-06-11T01:47:52.988Z,1014.27
2018-06-11T01:49:02.131Z,1014.29
2018-06-11T01:50:11.268Z,1014.27
2018-06-11T01:51:20.278Z,1014.26
2018-06-11T01:52:29.139Z,1014.26
2018-06-11T01:53:38.001Z,1014.3
2018-06-11T01:54:46.861Z,1014.32
2018-06-11T01:55:56.275Z,1014.29
2018-06-11T01:57:05.387Z,1014.28
2018-06-11T01:58:14.246Z,1014.25
2018-06-11T01:59:23.386Z,1014.23
2018-06-11T02:00:32.246Z,1014.17
2018-06-11T02:01:41.109Z,1014.19
2018-06-11T02:02:50.018Z,1014.12
2018-06-11T02:03:59.157Z,1014.02
2018-06-11T02:05:08.021Z,1014.02
2018-06-11T02:06:17.157Z,1014.01
2018-06-11T02:07:26.295Z,1014.02
2018-06-11T02:08:35.203Z,1013.97
2018-06-11T02:09:44.340Z,1014.01
2018-06-11T02:10:53.200Z,1014
2018-06-11T02:12:02.069Z,1014.05
2018-06-11T02:13:10.931Z,1014.04
2018-06-11T02:14:19.945Z,1014.04
2018-06-11T02:15:29.086Z,1014.09
2018-06-11T02:16:38.226Z,1014.01
2018-06-11T02:17:47.089Z,1014.01
2018-06-11T02:18:55.951Z,1014.01
2018-06-11T02:20:05.344Z,1013.92
2018-06-11T02:21:14.201Z,1013.88
2018-06-11T02:22:23.338Z,1013.85
2018-06-11T02:23:32.198Z,1013.82
2018-06-11T02:24:41.060Z,1013.87
2018-06-11T02:25:50.349Z,1013.85
2018-06-11T02:26:59.206Z,1013.85
2018-06-11T02:28:08.066Z,1013.91
2018-06-11T02:29:17.486Z,1013.9
2018-06-11T02:30:26.349Z,1013.92
2018-06-11T02:31:35.497Z,1013.93
2018-06-11T02:32:44.640Z,1013.96
2018-06-11T02:33:53.504Z,1014.02
2018-06-11T02:35:02.921Z,1014.08
2018-06-11T02:36:12.345Z,1014.07
2018-06-11T02:37:21.357Z,1014.09
2018-06-11T02:38:30.767Z,1014.13
2018-06-11T02:39:39.631Z,1014.13
2018-06-11T02:40:49.052Z,1014.13
2018-06-11T02:41:58.202Z,1014.11
2018-06-11T02:43:07.212Z,1014.17
2018-06-11T02:44:16.357Z,1014.14
2018-06-11T02:45:25.780Z,1014.17
2018-06-11T02:46:34.647Z,1014.17
2018-06-11T02:47:44.060Z,1014.14
2018-06-11T02:48:53.071Z,1014.12
2018-06-11T02:50:01.935Z,1014.12
2018-06-11T02:51:11.094Z,1014.08
2018-06-11T02:52:20.246Z,1014.07
2018-06-11T02:53:29.665Z,1014.07
2018-06-11T02:54:39.084Z,1014.09
2018-06-11T02:55:47.950Z,1014.09
2018-06-11T02:56:57.092Z,1014.11
2018-06-11T02:58:06.232Z,1014.05
2018-06-11T02:59:15.645Z,1014.05
2018-06-11T03:00:24.606Z,1014.09
2018-06-11T03:01:34.027Z,1014.09
2018-06-11T03:02:42.897Z,1014.12
2018-06-11T03:03:52.030Z,1014.12
2018-06-11T03:05:01.450Z,1014.14
2018-06-11T03:06:10.742Z,1014.11
2018-06-11T03:07:20.160Z,1014.14
2018-06-11T03:08:29.302Z,1014.12
2018-06-11T03:09:38.723Z,1014.11
2018-06-11T03:10:47.860Z,1014.13
2018-06-11T03:11:57.152Z,1014.15
2018-06-11T03:13:06.842Z,1014.17
2018-06-11T03:14:15.978Z,1014.15
2018-06-11T03:15:25.399Z,1014.11
2018-06-11T03:16:34.259Z,1014.15
2018-06-11T03:17:43.792Z,1014.11
2018-06-11T03:18:52.930Z,1014.07
2018-06-11T03:20:01.791Z,1014.02
2018-06-11T03:21:10.651Z,1014.03
2018-06-11T03:22:19.790Z,1014.04
2018-06-11T03:23:28.706Z,1013.99
2018-06-11T03:24:37.571Z,1014.06
2018-06-11T03:25:46.434Z,1014.08
2018-06-11T03:26:55.295Z,1014.12
2018-06-11T03:28:04.155Z,1014.09
2018-06-11T03:29:13.165Z,1014.08
2018-06-11T03:30:22.030Z,1014.08
2018-06-11T03:31:31.173Z,1014.01
2018-06-11T03:32:40.591Z,1014.06
2018-06-11T03:33:49.729Z,1013.99
2018-06-11T03:34:58.939Z,1013.97
2018-06-11T03:36:07.802Z,1013.98
2018-06-11T03:37:16.661Z,1013.96
2018-06-11T03:38:25.527Z,1013.95
2018-06-11T03:39:34.385Z,1013.95
2018-06-11T03:40:43.870Z,1013.92
2018-06-11T03:41:53.008Z,1013.94
2018-06-11T03:43:02.149Z,1013.9
2018-06-11T03:44:11.289Z,1013.93
2018-06-11T03:45:20.151Z,1013.95
2018-06-11T03:46:29.291Z,1013.94
2018-06-11T03:47:38.152Z,1013.89
2018-06-11T03:48:47.294Z,1013.92
2018-06-11T03:49:56.153Z,1013.96
2018-06-11T03:51:05.015Z,1013.98
2018-06-11T03:52:13.875Z,1013.96
2018-06-11T03:53:23.014Z,1013.99
2018-06-11T03:54:31.880Z,1013.99
2018-06-11T03:55:40.737Z,1014.01
2018-06-11T03:56:49.598Z,1014.06
2018-06-11T03:57:58.736Z,1014.05
2018-06-11T03:59:07.597Z,1014.06
2018-06-11T04:00:16.462Z,1014.06
2018-06-11T04:01:25.322Z,1014.08
2018-06-11T04:02:34.188Z,1014.09
2018-06-11T04:03:43.300Z,1014.04
2018-06-11T04:04:52.161Z,1014.07
2018-06-11T04:06:01.023Z,1014.04
2018-06-11T04:07:09.884Z,1014.09
2018-06-11T04:08:19.028Z,1014.05
2018-06-11T04:09:27.939Z,1014.03
2018-06-11T04:10:36.833Z,1014.03
2018-06-11T04:11:45.971Z,1013.98
2018-06-11T04:12:54.832Z,1014
2018-06-11T04:14:03.693Z,1013.99
2018-06-11T04:15:12.879Z,1013.97
2018-06-11T04:16:21.741Z,1013.98
2018-06-11T04:17:30.602Z,1014.05
2018-06-11T04:18:39.463Z,1014.06
2018-06-11T04:19:48.323Z,1014.07
2018-06-11T04:20:57.286Z,1014.05
2018-06-11T04:22:06.147Z,1014.07
2018-06-11T04:23:15.285Z,1014.09
2018-06-11T04:24:24.148Z,1014.17
2018-06-11T04:25:33.008Z,1014.11
2018-06-11T04:26:41.973Z,1014.16
2018-06-11T04:27:51.392Z,1014.21
2018-06-11T04:29:00.529Z,1014.21
2018-06-11T04:30:09.392Z,1014.15
2018-06-11T04:31:18.248Z,1014.19
2018-06-11T04:32:27.108Z,1014.17
2018-06-11T04:33:35.967Z,1014.13
2018-06-11T04:34:45.194Z,1014.2
2018-06-11T04:35:54.331Z,1014.26
2018-06-11T04:37:03.194Z,1014.26
2018-06-11T04:38:12.332Z,1014.22
2018-06-11T04:39:21.195Z,1014.24
2018-06-11T04:40:30.054Z,1014.22
2018-06-11T04:41:38.920Z,1014.25
2018-06-11T04:42:47.881Z,1014.24
2018-06-11T04:43:56.743Z,1014.23
2018-06-11T04:45:05.605Z,1014.26
2018-06-11T04:46:14.468Z,1014.26
2018-06-11T04:47:23.337Z,1014.2
2018-06-11T04:48:32.199Z,1014.17
2018-06-11T04:49:41.336Z,1014.16
2018-06-11T04:50:50.197Z,1014.13
2018-06-11T04:51:59.059Z,1014.15
2018-06-11T04:53:08.072Z,1014.19
2018-06-11T04:54:16.933Z,1014.2
2018-06-11T04:55:26.071Z,1014.16
2018-06-11T04:56:34.931Z,1014.16
2018-06-11T04:57:44.077Z,1014.16
2018-06-11T04:58:52.941Z,1014.13
2018-06-11T05:00:02.353Z,1014.12
2018-06-11T05:01:11.216Z,1014.11
2018-06-11T05:02:20.080Z,1014.16
2018-06-11T05:03:29.274Z,1014.16
2018-06-11T05:04:38.136Z,1014.15
2018-06-11T05:05:47.000Z,1014.17
2018-06-11T05:06:55.861Z,1014.2
2018-06-11T05:08:04.780Z,1014.21
2018-06-11T05:09:14.400Z,1014.16
2018-06-11T05:10:23.262Z,1014.24
2018-06-11T05:11:32.401Z,1014.23
2018-06-11T05:12:41.815Z,1014.25
2018-06-11T05:13:50.675Z,1014.25
2018-06-11T05:14:59.820Z,1014.28
2018-06-11T05:16:08.959Z,1014.31
2018-06-11T05:17:18.097Z,1014.33
2018-06-11T05:18:26.958Z,1014.34
2018-06-11T05:19:36.100Z,1014.35
2018-06-11T05:20:44.963Z,1014.35
2018-06-11T05:21:53.826Z,1014.37
2018-06-11T05:23:02.691Z,1014.32
2018-06-11T05:24:11.551Z,1014.33
2018-06-11T05:25:20.412Z,1014.34
2018-06-11T05:26:29.906Z,1014.28
2018-06-11T05:27:39.042Z,1014.33
2018-06-11T05:28:47.930Z,1014.32
2018-06-11T05:29:56.766Z,1014.3
2018-06-11T05:31:05.629Z,1014.32
2018-06-11T05:32:14.590Z,1014.34
2018-06-11T05:33:23.451Z,1014.26
2018-06-11T05:34:32.635Z,1014.32
2018-06-11T05:35:41.456Z,1014.34
2018-06-11T05:36:50.318Z,1014.36
2018-06-11T05:37:59.286Z,1014.37
2018-06-11T05:39:08.144Z,1014.41
2018-06-11T05:40:17.049Z,1014.42
2018-06-11T05:41:26.183Z,1014.38
2018-06-11T05:42:35.045Z,1014.43
2018-06-11T05:43:44.259Z,1014.48
2018-06-11T05:44:53.397Z,1014.49
2018-06-11T05:46:02.535Z,1014.52
2018-06-11T05:47:11.398Z,1014.56
2018-06-11T05:48:20.259Z,1014.53
2018-06-11T05:49:29.171Z,1014.48
2018-06-11T05:50:38.035Z,1014.53
2018-06-11T05:51:46.897Z,1014.57
2018-06-11T05:52:55.760Z,1014.64
2018-06-11T05:54:04.624Z,1014.58
2018-06-11T05:55:13.836Z,1014.58
2018-06-11T05:56:22.698Z,1014.58
2018-06-11T05:57:31.559Z,1014.56
2018-06-11T05:58:40.421Z,1014.51
2018-06-11T05:59:49.284Z,1014.55
2018-06-11T06:00:58.777Z,1014.58
2018-06-11T06:02:07.652Z,1014.55
2018-06-11T06:03:16.503Z,1014.59
2018-06-11T06:04:25.659Z,1014.63
2018-06-11T06:05:34.520Z,1014.6
2018-06-11T06:06:43.488Z,1014.59
2018-06-11T06:07:52.353Z,1014.62
2018-06-11T06:09:01.489Z,1014.63
2018-06-11T06:10:10.350Z,1014.66
2018-06-11T06:11:19.485Z,1014.64
2018-06-11T06:12:28.699Z,1014.59
2018-06-11T06:13:38.123Z,1014.63
2018-06-11T06:14:46.987Z,1014.63
2018-06-11T06:15:56.127Z,1014.58
2018-06-11T06:17:04.992Z,1014.65
2018-06-11T06:18:14.181Z,1014.62
2018-06-11T06:19:23.048Z,1014.65
2018-06-11T06:20:31.910Z,1014.61
2018-06-11T06:21:40.771Z,1014.61
2018-06-11T06:22:49.635Z,1014.59
2018-06-11T06:23:58.548Z,1014.62
2018-06-11T06:25:07.527Z,1014.62
2018-06-11T06:26:16.733Z,1014.63
2018-06-11T06:27:25.602Z,1014.64
2018-06-11T06:28:35.020Z,1014.57
2018-06-11T06:29:44.234Z,1014.64
2018-06-11T06:30:53.098Z,1014.6
2018-06-11T06:32:01.960Z,1014.61
2018-06-11T06:33:10.825Z,1014.61
2018-06-11T06:34:20.046Z,1014.61
2018-06-11T06:35:30.030Z,1014.61
2018-06-11T06:36:39.175Z,1014.65
2018-06-11T06:37:48.040Z,1014.71
2018-06-11T06:38:56.904Z,1014.7
2018-06-11T06:40:05.767Z,1014.63
2018-06-11T06:41:14.779Z,1014.63
2018-06-11T06:42:23.921Z,1014.69
2018-06-11T06:43:33.058Z,1014.72
2018-06-11T06:44:42.201Z,1014.68
2018-06-11T06:45:51.067Z,1014.73
2018-06-11T06:47:00.399Z,1014.71
2018-06-11T06:48:09.264Z,1014.71
2018-06-11T06:49:18.129Z,1014.71
2018-06-11T06:50:26.992Z,1014.74
2018-06-11T06:51:35.865Z,1014.73
2018-06-11T06:52:45.465Z,1014.7
2018-06-11T06:53:54.279Z,1014.71
2018-06-11T06:55:03.427Z,1014.75
2018-06-11T06:56:12.295Z,1014.66
2018-06-11T06:57:21.156Z,1014.71
2018-06-11T06:58:30.086Z,1014.67
2018-06-11T06:59:39.504Z,1014.69
2018-06-11T07:00:48.364Z,1014.65
2018-06-11T07:01:57.226Z,1014.67
2018-06-11T07:03:06.090Z,1014.66
2018-06-11T07:04:15.003Z,1014.7
2018-06-11T07:05:24.144Z,1014.69
2018-06-11T07:06:33.007Z,1014.69
2018-06-11T07:07:41.875Z,1014.75
2018-06-11T07:08:50.748Z,1014.78
2018-06-11T07:09:59.656Z,1014.78
2018-06-11T07:11:08.523Z,1014.78
2018-06-11T07:12:17.381Z,1014.81
2018-06-11T07:13:26.246Z,1014.78
2018-06-11T07:14:35.664Z,1014.8
2018-06-11T07:15:44.627Z,1014.83
2018-06-11T07:16:53.491Z,1014.81
2018-06-11T07:18:02.354Z,1014.85
2018-06-11T07:19:11.493Z,1014.8
2018-06-11T07:20:20.633Z,1014.79
2018-06-11T07:21:29.821Z,1014.84
2018-06-11T07:22:38.960Z,1014.8
2018-06-11T07:23:48.100Z,1014.85
2018-06-11T07:24:56.965Z,1014.82
2018-06-11T07:26:06.108Z,1014.83
2018-06-11T07:27:15.451Z,1014.84
2018-06-11T07:28:24.209Z,1014.9
2018-06-11T07:29:33.073Z,1014.89
2018-06-11T07:30:41.936Z,1014.92
2018-06-11T07:31:50.797Z,1014.85
2018-06-11T07:33:00.115Z,1014.89
2018-06-11T07:34:09.257Z,1014.87
2018-06-11T07:35:18.120Z,1014.9
2018-06-11T07:36:26.985Z,1014.91
2018-06-11T07:37:36.124Z,1014.9
2018-06-11T07:38:45.088Z,1014.91
2018-06-11T07:39:54.228Z,1014.93
2018-06-11T07:41:03.144Z,1014.93
2018-06-11T07:42:11.956Z,1014.94
2018-06-11T07:43:21.372Z,1014.93
2018-06-11T07:44:30.935Z,1014.96
2018-06-11T07:45:39.802Z,1014.96
2018-06-11T07:46:48.661Z,1014.93
2018-06-11T07:47:57.525Z,1014.91
2018-06-11T07:49:06.675Z,1014.89
2018-06-11T07:50:16.025Z,1014.88
2018-06-11T07:51:24.886Z,1014.88
2018-06-11T07:52:33.751Z,1014.9
2018-06-11T07:53:42.617Z,1014.91
2018-06-11T07:54:51.481Z,1014.96
2018-06-11T07:56:00.397Z,1014.94
2018-06-11T07:57:09.267Z,1014.94
2018-06-11T07:58:18.130Z,1014.96
2018-06-11T07:59:26.995Z,1014.92
2018-06-11T08:00:35.859Z,1014.93
2018-06-11T08:01:44.728Z,1014.95
2018-06-11T08:02:53.914Z,1014.98
2018-06-11T08:04:02.781Z,1015.01
2018-06-11T08:05:11.919Z,1015
2018-06-11T08:06:20.787Z,1014.96
2018-06-11T08:07:29.706Z,1014.96
2018-06-11T08:08:38.953Z,1014.99
2018-06-11T08:09:47.817Z,1014.97
2018-06-11T08:10:56.685Z,1014.94
2018-06-11T08:12:05.542Z,1014.91
2018-06-11T08:13:14.459Z,1014.92
2018-06-11T08:14:23.324Z,1014.89
2018-06-11T08:15:32.189Z,1014.84
2018-06-11T08:16:41.053Z,1014.87
2018-06-11T08:17:49.917Z,1014.83
2018-06-11T08:18:58.831Z,1014.83
2018-06-11T08:20:07.698Z,1014.82
2018-06-11T08:21:16.560Z,1014.84
2018-06-11T08:22:25.423Z,1014.82
2018-06-11T08:23:34.283Z,1014.85
2018-06-11T08:24:43.498Z,1014.87
2018-06-11T08:25:52.635Z,1014.89
2018-06-11T08:27:01.504Z,1014.89
2018-06-11T08:28:10.926Z,1014.9
2018-06-11T08:29:19.788Z,1014.95
2018-06-11T08:30:28.751Z,1014.95
2018-06-11T08:31:37.617Z,1014.94
2018-06-11T08:32:46.484Z,1014.92
2018-06-11T08:33:55.350Z,1014.9
2018-06-11T08:35:04.218Z,1014.93
2018-06-11T08:36:13.078Z,1014.83
2018-06-11T08:37:21.942Z,1014.86
2018-06-11T08:38:31.083Z,1014.88
2018-06-11T08:39:39.947Z,1014.84
2018-06-11T08:40:49.091Z,1014.89
2018-06-11T08:41:57.953Z,1014.85
2018-06-11T08:43:06.876Z,1014.86
2018-06-11T08:44:16.366Z,1014.87
2018-06-11T08:45:25.233Z,1014.91
2018-06-11T08:46:34.374Z,1014.93
2018-06-11T08:47:43.572Z,1014.96
2018-06-11T08:48:52.441Z,1014.99
2018-06-11T08:50:01.353Z,1015.01
2018-06-11T08:51:10.878Z,1014.97
2018-06-11T08:52:19.742Z,1014.92
2018-06-11T08:53:28.807Z,1014.93
2018-06-11T08:54:37.947Z,1014.99
2018-06-11T08:55:46.813Z,1015.01
2018-06-11T08:56:55.677Z,1015.03
2018-06-11T08:58:04.554Z,1015.09
2018-06-11T08:59:13.462Z,1015.13
2018-06-11T09:00:22.326Z,1015.07
2018-06-11T09:01:31.190Z,1015.06
2018-06-11T09:02:40.058Z,1015.12
2018-06-11T09:03:48.922Z,1015.07
2018-06-11T09:04:57.942Z,1015.04
2018-06-11T09:06:07.081Z,1015.04
2018-06-11T09:07:15.946Z,1015.05
2018-06-11T09:08:24.810Z,1015.04
2018-06-11T09:09:33.675Z,1015.04
2018-06-11T09:10:42.742Z,1015.09
2018-06-11T09:11:51.606Z,1015.05
2018-06-11T09:13:00.472Z,1015.05
2018-06-11T09:14:09.337Z,1015.01
2018-06-11T09:15:18.200Z,1015.04
2018-06-11T09:16:27.343Z,1015.07
2018-06-11T09:17:36.483Z,1015.02
2018-06-11T09:18:45.350Z,1015.02
2018-06-11T09:19:54.493Z,1015.01
2018-06-11T09:21:03.354Z,1014.98
2018-06-11T09:22:12.421Z,1014.92
2018-06-11T09:23:21.287Z,1014.95
2018-06-11T09:24:30.150Z,1014.97
2018-06-11T09:25:39.288Z,1014.94
2018-06-11T09:26:48.156Z,1014.94
2018-06-11T09:27:57.171Z,1014.92
2018-06-11T09:29:06.039Z,1014.9
2018-06-11T09:30:14.906Z,1014.87
2018-06-11T09:31:23.774Z,1014.86
2018-06-11T09:32:32.641Z,1014.9
2018-06-11T09:33:41.936Z,1014.9
2018-06-11T09:34:51.078Z,1014.95
2018-06-11T09:35:59.993Z,1015
2018-06-11T09:37:09.143Z,1014.97
2018-06-11T09:38:18.307Z,1014.97
2018-06-11T09:39:27.481Z,1015.01
2018-06-11T09:40:36.347Z,1014.91
2018-06-11T09:41:45.214Z,1014.94
2018-06-11T09:42:54.079Z,1014.92
2018-06-11T09:44:02.978Z,1014.98
2018-06-11T09:45:12.230Z,1014.93
2018-06-11T09:46:21.095Z,1014.93
2018-06-11T09:47:29.963Z,1014.88
2018-06-11T09:48:38.825Z,1014.94
2018-06-11T09:49:47.695Z,1014.88
2018-06-11T09:50:56.605Z,1014.96
2018-06-11T09:52:05.756Z,1014.94
2018-06-11T09:53:14.622Z,1014.89
2018-06-11T09:54:23.487Z,1014.97
2018-06-11T09:55:32.903Z,1014.89
2018-06-11T09:56:42.017Z,1014.92
2018-06-11T09:57:50.884Z,1014.92
2018-06-11T09:58:59.748Z,1014.97
2018-06-11T10:00:08.617Z,1014.93
2018-06-11T10:01:17.760Z,1014.95
2018-06-11T10:02:26.673Z,1014.94
2018-06-11T10:03:35.595Z,1014.96
2018-06-11T10:04:44.402Z,1015.01
2018-06-11T10:05:53.265Z,1015.08
2018-06-11T10:07:02.707Z,1015.06
2018-06-11T10:08:11.725Z,1015.05
2018-06-11T10:09:20.593Z,1015.02
2018-06-11T10:10:29.459Z,1015.02
2018-06-11T10:11:38.325Z,1015.03
2018-06-11T10:12:47.189Z,1015.09
2018-06-11T10:13:56.202Z,1015.08
2018-06-11T10:15:05.350Z,1015.12
2018-06-11T10:16:14.213Z,1015.1
2018-06-11T10:17:23.081Z,1015.08
2018-06-11T10:18:31.944Z,1015.06
2018-06-11T10:19:41.060Z,1015.07
2018-06-11T10:20:49.924Z,1015.07
2018-06-11T10:21:58.788Z,1015.1
2018-06-11T10:23:07.932Z,1015.06
2018-06-11T10:24:16.797Z,1015.03
2018-06-11T10:25:25.713Z,1015
2018-06-11T10:26:34.577Z,1014.98
2018-06-11T10:27:43.441Z,1015.04
2018-06-11T10:28:52.304Z,1015.07
2018-06-11T10:30:01.176Z,1015.1
2018-06-11T10:31:10.040Z,1015.17
2018-06-11T10:32:19.232Z,1015.17
2018-06-11T10:33:28.385Z,1015.1
2018-06-11T10:34:37.250Z,1015.06
2018-06-11T10:35:46.114Z,1015.14
2018-06-11T10:36:55.078Z,1015.1
2018-06-11T10:38:03.941Z,1015.11
2018-06-11T10:39:13.121Z,1015.09
2018-06-11T10:40:21.946Z,1015.07
2018-06-11T10:41:30.813Z,1015.09
2018-06-11T10:42:39.728Z,1015.06
2018-06-11T10:43:49.150Z,1015.09
2018-06-11T10:44:58.014Z,1015.04
2018-06-11T10:46:07.155Z,1015.05
2018-06-11T10:47:16.025Z,1015.05
2018-06-11T10:48:25.089Z,1015.05
2018-06-11T10:49:33.950Z,1015.01
2018-06-11T10:50:42.817Z,1014.98
2018-06-11T10:51:51.681Z,1014.94
2018-06-11T10:53:00.824Z,1014.9
2018-06-11T10:54:10.172Z,1014.9
2018-06-11T10:55:19.037Z,1014.88
2018-06-11T10:56:27.903Z,1014.9
2018-06-11T10:57:36.769Z,1014.91
2018-06-11T10:58:45.918Z,1014.94
2018-06-11T10:59:54.930Z,1014.91
2018-06-11T11:01:04.070Z,1014.87
2018-06-11T11:02:12.940Z,1014.83
2018-06-11T11:03:22.076Z,1014.75
2018-06-11T11:04:30.951Z,1014.72
2018-06-11T11:05:40.108Z,1014.78
2018-06-11T11:06:49.246Z,1014.75
2018-06-11T11:07:58.108Z,1014.71
2018-06-11T11:09:06.974Z,1014.7
2018-06-11T11:10:15.840Z,1014.67
2018-06-11T11:11:25.056Z,1014.72
2018-06-11T11:12:34.208Z,1014.71
2018-06-11T11:13:43.360Z,1014.68
2018-06-11T11:14:52.506Z,1014.67
2018-06-11T11:16:01.373Z,1014.68
2018-06-11T11:17:10.389Z,1014.71
2018-06-11T11:18:19.255Z,1014.67
2018-06-11T11:19:28.120Z,1014.67
2018-06-11T11:20:37.542Z,1014.65
2018-06-11T11:21:46.405Z,1014.61
2018-06-11T11:22:55.322Z,1014.6
2018-06-11T11:24:04.232Z,1014.62
2018-06-11T11:25:13.058Z,1014.63
2018-06-11T11:26:21.921Z,1014.65
2018-06-11T11:27:31.060Z,1014.63
2018-06-11T11:28:40.358Z,1014.63
2018-06-11T11:29:49.226Z,1014.68
2018-06-11T11:30:58.094Z,1014.61
2018-06-11T11:32:06.964Z,1014.67
2018-06-11T11:33:15.823Z,1014.63
2018-06-11T11:34:24.892Z,1014.6
2018-06-11T11:35:34.039Z,1014.58
2018-06-11T11:36:43.185Z,1014.57
2018-06-11T11:37:52.051Z,1014.6
2018-06-11T11:39:01.191Z,1014.64
2018-06-11T11:40:10.106Z,1014.66
2018-06-11T11:41:18.973Z,1014.66
2018-06-11T11:42:27.838Z,1014.63
2018-06-11T11:43:36.709Z,1014.71
2018-06-11T11:44:45.571Z,1014.67
2018-06-11T11:45:54.587Z,1014.65
2018-06-11T11:47:03.458Z,1014.7
2018-06-11T11:48:12.323Z,1014.66
2018-06-11T11:49:21.193Z,1014.72
2018-06-11T11:50:30.333Z,1014.67
2018-06-11T11:51:39.300Z,1014.75
2018-06-11T11:52:48.170Z,1014.68
2018-06-11T11:53:57.035Z,1014.67
2018-06-11T11:55:05.905Z,1014.7
2018-06-11T11:56:14.784Z,1014.6
2018-06-11T11:57:23.927Z,1014.64
2018-06-11T11:58:33.105Z,1014.66
2018-06-11T11:59:42.248Z,1014.65
2018-06-11T12:00:51.669Z,1014.68
2018-06-11T12:02:00.828Z,1014.65
2018-06-11T12:03:10.050Z,1014.7
2018-06-11T12:04:18.922Z,1014.65
2018-06-11T12:05:27.790Z,1014.61
2018-06-11T12:06:36.659Z,1014.65
2018-06-11T12:07:45.529Z,1014.64
2018-06-11T12:08:54.831Z,1014.68
2018-06-11T12:10:03.704Z,1014.68
2018-06-11T12:11:12.853Z,1014.68
2018-06-11T12:12:22.553Z,1014.63
2018-06-11T12:13:31.421Z,1014.58
2018-06-11T12:14:40.544Z,1014.57
2018-06-11T12:15:49.415Z,1014.51
2018-06-11T12:16:58.285Z,1014.5
2018-06-11T12:18:07.159Z,1014.47
2018-06-11T12:19:16.033Z,1014.5
2018-06-11T12:20:25.490Z,1014.49
2018-06-11T12:21:37.425Z,1014.41
2018-06-11T12:22:46.491Z,1014.46
2018-06-11T12:23:55.365Z,1014.49
2018-06-11T12:25:04.525Z,1014.43
2018-06-11T12:26:13.766Z,1014.42
2018-06-11T12:27:22.747Z,1014.48
2018-06-11T12:28:31.893Z,1014.37
2018-06-11T12:29:40.766Z,1014.37
2018-06-11T12:30:49.641Z,1014.37
2018-06-11T12:31:58.838Z,1014.32
2018-06-11T12:33:07.710Z,1014.35
2018-06-11T12:34:16.585Z,1014.33
2018-06-11T12:35:25.457Z,1014.35
2018-06-11T12:36:34.336Z,1014.29
2018-06-11T12:37:43.204Z,1014.25
2018-06-11T12:38:52.361Z,1014.3
2018-06-11T12:40:01.233Z,1014.29
2018-06-11T12:41:10.108Z,1014.25
2018-06-11T12:42:19.258Z,1014.19
2018-06-11T12:43:28.231Z,1014.18
2018-06-11T12:44:37.104Z,1014.22
2018-06-11T12:45:45.974Z,1014.27
2018-06-11T12:46:54.851Z,1014.26
2018-06-11T12:48:03.728Z,1014.11
2018-06-11T12:49:12.699Z,1014.21
2018-06-11T12:50:21.573Z,1014.17
2018-06-11T12:51:31.297Z,1014.12
2018-06-11T12:52:40.473Z,1014.09
2018-06-11T12:53:49.323Z,1014.11
2018-06-11T12:54:58.550Z,1014.07
2018-06-11T12:56:07.715Z,1014.11
2018-06-11T12:57:16.896Z,1014.09
2018-06-11T12:58:25.779Z,1014.1
2018-06-11T12:59:34.644Z,1014.08
2018-06-11T13:00:43.999Z,1014.12
2018-06-11T13:01:52.911Z,1014.06
2018-06-11T13:03:01.784Z,1014.08
2018-06-11T13:04:10.947Z,1014.11
2018-06-11T13:05:20.335Z,1014.12
2018-06-11T13:06:33.257Z,1013.97
2018-06-11T13:07:44.588Z,1014.12
2018-06-11T13:08:56.234Z,1013.98
2018-06-11T13:10:07.832Z,1014
2018-06-11T13:11:19.118Z,1013.78
2018-06-11T13:12:28.371Z,1013.86
2018-06-11T13:13:37.246Z,1013.8
2018-06-11T13:14:46.123Z,1013.92
2018-06-11T13:15:54.996Z,1013.85
2018-06-11T13:17:04.150Z,1013.9
2018-06-11T13:18:13.404Z,1013.78
2018-06-11T13:19:22.281Z,1013.82
2018-06-11T13:20:31.434Z,1013.78
2018-06-11T13:21:40.308Z,1013.79
2018-06-11T13:22:49.186Z,1013.8
2018-06-11T13:23:58.061Z,1013.78
2018-06-11T13:25:06.938Z,1013.79
2018-06-11T13:26:16.099Z,1013.83
2018-06-11T13:27:24.973Z,1013.85
2018-06-11T13:28:33.848Z,1013.83
2018-06-11T13:29:42.776Z,1013.83
2018-06-11T13:30:51.656Z,1013.83
2018-06-11T13:32:00.818Z,1013.85
2018-06-11T13:33:09.697Z,1013.83
2018-06-11T13:34:18.573Z,1013.89
2018-06-11T13:35:27.650Z,1013.9
2018-06-11T13:36:36.527Z,1013.9
2018-06-11T13:37:45.736Z,1013.91
2018-06-11T13:38:54.616Z,1013.92
2018-06-11T13:40:03.785Z,1013.92
2018-06-11T13:41:13.013Z,1013.95
2018-06-11T13:42:22.166Z,1013.99
2018-06-11T13:43:31.050Z,1013.92
2018-06-11T13:44:39.931Z,1013.93
2018-06-11T13:45:49.135Z,1013.9
2018-06-11T13:46:58.018Z,1013.96
2018-06-11T13:48:07.174Z,1013.87
2018-06-11T13:49:16.341Z,1013.95
2018-06-11T13:50:25.221Z,1013.97
2018-06-11T13:51:34.100Z,1013.94
2018-06-11T13:52:43.031Z,1013.85
2018-06-11T13:53:51.908Z,1013.82
2018-06-11T13:55:01.063Z,1013.86
2018-06-11T13:56:10.216Z,1013.78
2018-06-11T13:57:19.100Z,1013.83
2018-06-11T13:58:28.031Z,1013.84